createdAt,value
2018-06-05T00:11:24.090Z,95.20
2018-06-05T00:13:53.093Z,97.20
2018-06-05T00:16:21.564Z,97.50
2018-06-05T00:18:50.006Z,97.60
2018-06-05T00:21:18.753Z,97.50
2018-06-05T00:23:47.208Z,97.50
2018-06-05T00:26:15.823Z,97.60
2018-06-05T00:28:44.949Z,97.50
2018-06-05T00:31:13.385Z,97.60
2018-06-05T00:33:42.517Z,97.50
2018-06-05T00:36:11.038Z,97.50
2018-06-05T00:38:39.493Z,97.40
2018-06-05T00:41:08.132Z,97.60
2018-06-05T00:43:36.596Z,97.60
2018-06-05T00:46:05.061Z,97.60
2018-06-05T00:48:33.493Z,97.50
2018-06-05T00:51:08.979Z,97.50
2018-06-05T00:53:37.418Z,97.60
2018-06-05T00:56:06.825Z,97.60
2018-06-05T00:58:35.387Z,97.50
2018-06-05T01:01:04.373Z,97.50
2018-06-05T01:03:33.461Z,97.50
2018-06-05T01:06:01.938Z,97.60
2018-06-05T01:08:30.417Z,97.50
2018-06-05T01:10:58.855Z,97.60
2018-06-05T01:13:27.634Z,97.50
2018-06-05T01:15:56.525Z,97.40
2018-06-05T01:18:25.073Z,97.30
2018-06-05T01:20:54.436Z,97.30
2018-06-05T01:23:23.252Z,97.30
2018-06-05T01:25:51.993Z,96.90
2018-06-05T01:28:20.461Z,96.80
2018-06-05T01:30:48.938Z,96.60
2018-06-05T01:33:17.537Z,96.60
2018-06-05T01:35:45.968Z,96.50
2018-06-05T01:38:14.901Z,96.40
2018-06-05T01:40:43.334Z,96.10
2018-06-05T01:43:11.757Z,95.80
2018-06-05T01:45:40.214Z,95.60
2018-06-05T01:48:08.996Z,95.40
2018-06-05T01:50:37.473Z,95.50
2018-06-05T01:53:06.157Z,95.40
2018-06-05T01:55:35.200Z,95.30
2018-06-05T01:58:03.833Z,95.20
2018-06-05T02:00:32.896Z,95.00
2018-06-05T02:03:01.753Z,94.80
2018-06-05T02:05:32.116Z,94.80
2018-06-05T02:08:00.905Z,94.50
2018-06-05T02:10:30.293Z,94.10
2018-06-05T02:12:59.156Z,94.10
2018-06-05T02:15:27.674Z,94.00
2018-06-05T02:17:56.129Z,94.00
2018-06-05T02:20:24.629Z,93.80
2018-06-05T02:22:53.104Z,93.70
2018-06-05T02:25:21.681Z,93.90
2018-06-05T02:27:52.107Z,94.00
2018-06-05T02:30:21.346Z,93.70
2018-06-05T02:32:50.485Z,93.60
2018-06-05T02:35:20.128Z,93.50
2018-06-05T02:37:49.065Z,93.10
2018-06-05T02:40:18.292Z,93.00
2018-06-05T02:42:47.046Z,92.80
2018-06-05T02:47:45.134Z,92.70
2018-06-05T02:50:14.252Z,92.80
2018-06-05T02:52:43.274Z,92.40
2018-06-05T02:55:13.041Z,92.40
2018-06-05T02:57:42.302Z,92.40
2018-06-05T03:00:11.429Z,92.20
2018-06-05T03:02:40.322Z,92.10
2018-06-05T03:05:09.875Z,92.20
2018-06-05T03:07:38.729Z,92.20
2018-06-05T03:10:07.441Z,92.40
2018-06-05T03:12:36.756Z,92.70
2018-06-05T03:15:06.392Z,92.60
2018-06-05T03:20:04.703Z,92.00
2018-06-05T03:22:34.868Z,91.90
2018-06-05T03:25:03.808Z,91.80
2018-06-05T03:27:33.199Z,91.90
2018-06-05T03:30:02.706Z,92.20
2018-06-05T03:35:00.943Z,92.20
2018-06-05T03:37:30.706Z,92.20
2018-06-05T03:40:00.097Z,92.40
2018-06-05T03:42:29.362Z,92.40
2018-06-05T03:44:58.742Z,92.50
2018-06-05T03:57:12.897Z,92.50
2018-06-05T03:59:42.152Z,93.80
2018-06-05T04:02:11.865Z,94.00
2018-06-05T04:04:43.185Z,94.10
2018-06-05T04:07:12.686Z,94.00
2018-06-05T04:09:41.718Z,93.90
2018-06-05T04:12:11.135Z,93.70
2018-06-05T04:14:40.516Z,93.50
2018-06-05T04:17:09.796Z,93.40
2018-06-05T04:19:40.442Z,93.40
2018-06-05T04:22:11.933Z,93.50
2018-06-05T04:24:41.031Z,93.50
2018-06-05T04:27:10.810Z,93.60
2018-06-05T04:29:39.913Z,93.50
2018-06-05T04:32:09.399Z,93.30
2018-06-05T04:34:38.778Z,93.10
2018-06-05T04:37:09.276Z,93.10
2018-06-05T04:39:38.689Z,92.60
2018-06-05T04:42:07.748Z,92.20
2018-06-05T04:44:36.967Z,92.20
2018-06-05T04:47:06.450Z,92.30
2018-06-05T04:49:35.889Z,91.90
2018-06-05T04:52:04.848Z,91.60
2018-06-05T04:54:33.944Z,90.90
2018-06-05T04:59:32.589Z,90.60
2018-06-05T05:02:01.548Z,90.60
2018-06-05T05:04:31.144Z,90.50
2018-06-05T05:07:01.621Z,90.40
2018-06-05T05:09:30.441Z,90.00
2018-06-05T05:11:59.486Z,89.10
2018-06-05T05:14:28.916Z,89.00
2018-06-05T05:16:59.275Z,89.30
2018-06-05T05:19:29.222Z,88.00
2018-06-05T05:21:58.414Z,86.90
2018-06-05T05:24:27.701Z,86.20
2018-06-05T05:26:57.329Z,86.70
2018-06-05T05:29:26.836Z,86.70
2018-06-05T05:31:55.981Z,86.10
2018-06-05T05:34:24.881Z,87.30
2018-06-05T05:36:54.792Z,85.10
2018-06-05T05:39:24.098Z,84.40
2018-06-05T05:41:53.150Z,84.80
2018-06-05T05:44:22.426Z,85.30
2018-06-05T05:46:51.899Z,83.60
2018-06-05T05:49:20.882Z,83.70
2018-06-05T05:51:54.368Z,82.00
2018-06-05T05:56:53.351Z,81.80
2018-06-05T05:59:22.700Z,82.20
2018-06-05T06:01:52.042Z,81.40
2018-06-05T06:04:21.487Z,80.60
2018-06-05T06:06:50.975Z,79.80
2018-06-05T06:09:21.059Z,80.20
2018-06-05T06:11:51.301Z,79.30
2018-06-05T06:14:20.265Z,77.80
2018-06-05T06:16:50.089Z,77.90
2018-06-05T06:19:19.132Z,76.80
2018-06-05T06:21:48.864Z,75.40
2018-06-05T06:24:18.435Z,76.10
2018-06-05T06:26:48.099Z,75.00
2018-06-05T06:29:17.547Z,73.50
2018-06-05T06:31:46.523Z,70.40
2018-06-05T06:34:15.349Z,70.10
2018-06-05T06:36:44.242Z,70.30
2018-06-05T06:39:13.058Z,70.60
2018-06-05T06:41:43.810Z,68.50
2018-06-05T06:44:12.933Z,67.70
2018-06-05T06:46:41.702Z,67.60
2018-06-05T06:49:10.946Z,67.60
2018-06-05T06:51:39.400Z,68.10
2018-06-05T06:54:08.627Z,68.60
2018-06-05T06:56:37.824Z,68.50
2018-06-05T06:59:07.852Z,69.50
2018-06-05T07:01:37.141Z,69.00
2018-06-05T07:04:06.181Z,70.20
2018-06-05T07:06:35.165Z,70.30
2018-06-05T07:09:06.120Z,68.90
2018-06-05T07:11:35.201Z,70.50
2018-06-05T07:14:05.401Z,69.50
2018-06-05T07:16:34.640Z,70.40
2018-06-05T07:19:04.633Z,70.10
2018-06-05T07:21:33.438Z,70.60
2018-06-05T07:24:02.707Z,71.20
2018-06-05T07:26:31.802Z,71.30
2018-06-05T07:29:01.417Z,71.20
2018-06-05T07:31:30.237Z,71.40
2018-06-05T07:33:59.283Z,71.90
2018-06-05T07:36:28.432Z,71.20
2018-06-05T07:38:57.749Z,71.10
2018-06-05T07:41:28.476Z,70.50
2018-06-05T07:46:28.566Z,70.10
2018-06-05T07:48:57.619Z,71.10
2018-06-05T07:51:26.383Z,71.50
2018-06-05T07:53:55.801Z,72.10
2018-06-05T07:56:24.983Z,72.40
2018-06-05T07:58:53.875Z,73.10
2018-06-05T08:01:23.735Z,73.30
2018-06-05T08:03:52.937Z,72.50
2018-06-05T08:06:22.432Z,72.90
2018-06-05T08:08:52.213Z,72.80
2018-06-05T08:11:21.702Z,73.00
2018-06-05T08:13:51.108Z,73.20
2018-06-05T08:16:20.442Z,73.60
2018-06-05T08:18:50.241Z,72.90
2018-06-05T08:21:19.149Z,72.90
2018-06-05T08:23:49.469Z,73.10
2018-06-05T08:26:18.897Z,73.40
2018-06-05T08:28:48.025Z,73.00
2018-06-05T08:31:17.518Z,71.90
2018-06-05T08:33:46.029Z,72.30
2018-06-05T08:36:15.939Z,69.60
2018-06-05T08:38:44.904Z,69.00
2018-06-05T08:41:14.213Z,69.20
2018-06-05T08:43:43.422Z,70.40
2018-06-05T08:46:12.516Z,69.60
2018-06-05T08:48:41.196Z,70.10
2018-06-05T08:51:09.849Z,71.10
2018-06-05T08:53:38.582Z,71.30
2018-06-05T08:56:08.575Z,71.70
2018-06-05T08:58:39.203Z,72.10
2018-06-05T09:01:08.137Z,71.90
2018-06-05T09:03:36.772Z,71.00
2018-06-05T09:06:06.796Z,70.30
2018-06-05T09:08:36.318Z,70.30
2018-06-05T09:11:05.105Z,69.80
2018-06-05T09:13:35.292Z,69.40
2018-06-05T09:16:04.951Z,69.10
2018-06-05T09:18:35.332Z,68.90
2018-06-05T09:21:04.710Z,68.50
2018-06-05T09:23:34.117Z,68.00
2018-06-05T09:26:03.459Z,66.90
2018-06-05T09:28:33.571Z,64.70
2018-06-05T09:31:03.489Z,64.30
2018-06-05T09:33:32.425Z,64.30
2018-06-05T09:36:01.624Z,63.50
2018-06-05T09:38:31.900Z,62.70
2018-06-05T09:41:00.946Z,61.20
2018-06-05T09:43:31.534Z,60.00
2018-06-05T09:46:00.624Z,60.10
2018-06-05T09:48:30.296Z,59.40
2018-06-05T09:50:59.281Z,58.40
2018-06-05T09:53:29.386Z,57.80
2018-06-05T09:55:58.441Z,57.10
2018-06-05T09:58:28.264Z,57.20
2018-06-05T10:00:59.210Z,56.00
2018-06-05T10:03:28.249Z,56.70
2018-06-05T10:05:58.055Z,57.30
2018-06-05T10:08:26.993Z,58.00
2018-06-05T10:10:56.616Z,58.30
2018-06-05T10:13:26.363Z,58.40
2018-06-05T10:15:55.800Z,59.40
2018-06-05T10:18:25.362Z,59.20
2018-06-05T10:20:55.325Z,59.20
2018-06-05T10:23:24.374Z,60.10
2018-06-05T10:25:54.348Z,60.70
2018-06-05T10:28:23.367Z,61.70
2018-06-05T10:30:52.434Z,61.60
2018-06-05T10:33:22.383Z,62.50
2018-06-05T10:35:51.408Z,62.90
2018-06-05T10:38:23.674Z,62.50
2018-06-05T10:40:52.892Z,61.70
2018-06-05T10:45:50.972Z,61.80
2018-06-05T10:48:20.374Z,61.40
2018-06-05T10:50:49.602Z,60.60
2018-06-05T10:53:18.984Z,60.00
2018-06-05T10:55:48.552Z,60.70
2018-06-05T10:58:17.796Z,60.90
2018-06-05T11:00:46.850Z,60.10
2018-06-05T11:03:17.215Z,59.50
2018-06-05T11:05:46.922Z,59.30
2018-06-05T11:08:16.731Z,60.30
2018-06-05T11:10:46.171Z,60.80
2018-06-05T11:13:14.952Z,60.20
2018-06-05T11:15:43.823Z,60.40
2018-06-05T11:18:13.715Z,59.80
2018-06-05T11:20:42.396Z,59.80
2018-06-05T11:23:12.018Z,60.00
2018-06-05T11:25:42.360Z,59.10
2018-06-05T11:28:11.599Z,58.40
2018-06-05T11:30:41.990Z,58.10
2018-06-05T11:33:11.477Z,57.70
2018-06-05T11:35:40.635Z,56.10
2018-06-05T11:38:10.189Z,56.40
2018-06-05T11:40:39.758Z,55.90
2018-06-05T11:43:08.765Z,55.80
2018-06-05T11:45:37.915Z,55.60
2018-06-05T11:48:06.819Z,55.20
2018-06-05T11:50:36.276Z,55.30
2018-06-05T11:53:05.684Z,55.00
2018-06-05T11:55:34.681Z,54.60
2018-06-05T11:58:03.413Z,53.60
2018-06-05T12:00:32.937Z,54.40
2018-06-05T12:03:02.144Z,55.00
2018-06-05T12:05:31.720Z,54.50
2018-06-05T12:08:00.444Z,53.60
2018-06-05T12:10:29.417Z,53.00
2018-06-05T12:12:59.596Z,52.10
2018-06-05T12:15:28.444Z,53.40
2018-06-05T12:17:57.043Z,54.90
2018-06-05T12:20:27.801Z,53.60
2018-06-05T12:22:56.789Z,52.70
2018-06-05T12:25:25.616Z,53.20
2018-06-05T12:27:54.299Z,54.50
2018-06-05T12:30:22.945Z,54.90
2018-06-05T12:32:51.567Z,54.30
2018-06-05T12:35:20.201Z,54.00
2018-06-05T12:37:49.864Z,54.10
2018-06-05T12:40:18.510Z,52.70
2018-06-05T12:42:47.145Z,52.30
2018-06-05T12:48:06.142Z,51.00
2018-06-05T12:50:35.190Z,51.20
2018-06-05T12:53:04.528Z,51.10
2018-06-05T12:55:33.410Z,51.80
2018-06-05T12:58:02.663Z,51.90
2018-06-05T13:00:31.616Z,52.60
2018-06-05T13:03:00.857Z,53.80
2018-06-05T13:05:29.861Z,55.40
2018-06-05T13:07:58.925Z,55.70
2018-06-05T13:10:28.135Z,56.60
2018-06-05T13:12:56.742Z,57.50
2018-06-05T13:15:25.564Z,56.50
2018-06-05T13:17:54.538Z,57.20
2018-06-05T13:20:23.855Z,57.20
2018-06-05T13:22:52.495Z,57.30
2018-06-05T13:25:21.037Z,57.90
2018-06-05T13:27:49.648Z,57.60
2018-06-05T13:30:19.059Z,58.20
2018-06-05T13:32:48.957Z,58.80
2018-06-05T13:35:17.497Z,59.10
2018-06-05T13:37:46.003Z,58.40
2018-06-05T13:40:14.899Z,58.90
2018-06-05T13:42:43.959Z,59.30
2018-06-05T13:45:12.964Z,59.60
2018-06-05T13:47:41.621Z,59.60
2018-06-05T13:50:10.375Z,59.00
2018-06-05T13:52:39.523Z,59.60
2018-06-05T13:55:08.869Z,59.30
2018-06-05T13:57:37.326Z,59.30
2018-06-05T14:00:06.804Z,59.60
2018-06-05T14:15:41.166Z,58.70
2018-06-05T14:18:10.239Z,59.70
2018-06-05T14:20:38.926Z,59.70
2018-06-05T14:23:07.632Z,59.60
2018-06-05T14:25:36.655Z,59.80
2018-06-05T14:28:05.486Z,59.30
2018-06-05T14:30:33.982Z,59.50
2018-06-05T14:33:06.921Z,59.30
2018-06-05T14:35:35.532Z,59.70
2018-06-05T14:38:04.776Z,59.50
2018-06-05T14:40:33.304Z,59.90
2018-06-05T14:43:02.514Z,60.70
2018-06-05T14:45:31.551Z,61.00
2018-06-05T14:48:00.795Z,60.70
2018-06-05T14:50:29.736Z,59.90
2018-06-05T14:52:58.673Z,60.30
2018-06-05T14:55:28.152Z,60.80
2018-06-05T14:57:57.088Z,61.90
2018-06-05T15:00:26.206Z,61.90
2018-06-05T15:02:55.189Z,62.20
2018-06-05T15:05:24.677Z,62.30
2018-06-05T15:07:54.594Z,61.80
2018-06-05T15:10:23.316Z,60.80
2018-06-05T15:12:53.551Z,60.40
2018-06-05T15:15:23.462Z,60.20
2018-06-05T15:17:52.696Z,61.10
2018-06-05T15:20:22.773Z,59.70
2018-06-05T15:22:52.519Z,60.20
2018-06-05T15:25:21.128Z,60.40
2018-06-05T15:27:50.403Z,59.90
2018-06-05T15:30:19.425Z,58.60
2018-06-05T15:32:47.922Z,59.10
2018-06-05T15:35:17.952Z,59.70
2018-06-05T15:37:46.448Z,59.80
2018-06-05T15:40:15.112Z,60.20
2018-06-05T15:42:43.998Z,59.90
2018-06-05T15:45:12.720Z,60.20
2018-06-05T15:47:42.124Z,60.20
2018-06-05T15:50:11.602Z,60.90
2018-06-05T15:55:08.971Z,61.30
2018-06-05T15:57:37.720Z,60.60
2018-06-05T16:00:07.200Z,60.00
2018-06-05T16:02:35.760Z,60.00
2018-06-05T16:05:05.242Z,60.90
2018-06-05T16:07:33.849Z,60.00
2018-06-05T16:10:02.847Z,60.90
2018-06-05T16:12:31.305Z,60.60
2018-06-05T16:15:00.208Z,60.90
2018-06-05T16:17:30.068Z,61.00
2018-06-05T16:19:58.730Z,60.60
2018-06-05T16:22:28.880Z,60.20
2018-06-05T16:24:57.434Z,60.50
2018-06-05T16:27:26.444Z,61.60
2018-06-05T16:29:55.399Z,60.80
2018-06-05T16:32:24.561Z,61.10
2018-06-05T16:34:54.516Z,60.50
2018-06-05T16:37:23.677Z,60.80
2018-06-05T16:39:52.238Z,60.40
2018-06-05T16:42:21.336Z,60.30
2018-06-05T16:44:51.613Z,60.40
2018-06-05T16:47:20.860Z,61.60
2018-06-05T16:49:49.341Z,60.60
2018-06-05T16:52:18.231Z,59.90
2018-06-05T16:54:47.738Z,60.50
2018-06-05T16:57:17.138Z,60.20
2018-06-05T17:02:15.221Z,60.80
2018-06-05T17:04:43.721Z,60.40
2018-06-05T17:07:12.231Z,61.20
2018-06-05T17:09:41.321Z,60.60
2018-06-05T17:12:10.196Z,60.30
2018-06-05T17:14:38.886Z,59.50
2018-06-05T17:17:07.834Z,59.50
2018-06-05T17:19:36.844Z,59.50
2018-06-05T17:22:05.667Z,60.20
2018-06-05T17:24:35.121Z,60.10
2018-06-05T17:27:03.925Z,60.40
2018-06-05T17:29:32.659Z,59.50
2018-06-05T17:32:01.137Z,59.90
2018-06-05T17:34:29.748Z,59.90
2018-06-05T17:36:58.990Z,60.40
2018-06-05T17:39:28.119Z,60.70
2018-06-05T17:41:57.690Z,61.20
2018-06-05T17:44:26.616Z,61.30
2018-06-05T17:46:55.612Z,61.20
2018-06-05T17:49:24.185Z,61.70
2018-06-05T17:51:53.228Z,62.10
2018-06-05T17:54:22.270Z,61.80
2018-06-05T17:56:50.745Z,61.70
2018-06-05T17:59:20.293Z,61.90
2018-06-05T18:01:48.897Z,62.40
2018-06-05T18:04:17.419Z,62.50
2018-06-05T18:06:45.963Z,62.80
2018-06-05T18:09:14.429Z,63.20
2018-06-05T18:11:43.580Z,63.10
2018-06-05T18:14:12.890Z,63.20
2018-06-05T18:16:43.178Z,63.60
2018-06-05T18:19:13.027Z,64.60
2018-06-05T18:21:43.266Z,64.20
2018-06-05T18:24:13.273Z,64.30
2018-06-05T18:26:42.366Z,64.70
2018-06-05T18:29:11.911Z,64.80
2018-06-05T18:31:42.205Z,65.00
2018-06-05T18:34:11.756Z,65.10
2018-06-05T18:36:40.626Z,65.30
2018-06-05T18:39:09.242Z,65.50
2018-06-05T18:41:38.467Z,65.90
2018-06-05T18:44:07.423Z,66.40
2018-06-05T18:46:35.997Z,66.20
2018-06-05T18:49:04.532Z,66.60
2018-06-05T18:51:33.240Z,66.90
2018-06-05T18:54:01.803Z,67.10
2018-06-05T19:06:16.523Z,67.40
2018-06-05T19:08:45.588Z,70.20
2018-06-05T19:11:14.356Z,70.60
2018-06-05T19:13:42.898Z,70.50
2018-06-05T19:16:12.553Z,71.10
2018-06-05T19:18:41.236Z,70.90
2018-06-05T19:21:09.686Z,71.40
2018-06-05T19:23:38.168Z,71.40
2018-06-05T19:26:06.637Z,71.80
2018-06-05T19:28:35.857Z,72.00
2018-06-05T19:31:04.803Z,72.30
2018-06-05T19:33:34.312Z,72.50
2018-06-05T19:36:03.577Z,72.90
2018-06-05T19:38:32.095Z,73.30
2018-06-05T19:41:01.222Z,73.80
2018-06-05T19:43:30.650Z,73.90
2018-06-05T19:46:00.041Z,74.30
2018-06-05T19:48:29.419Z,74.60
2018-06-05T19:50:57.973Z,74.90
2018-06-05T19:53:27.388Z,75.30
2018-06-05T19:55:56.001Z,75.70
2018-06-05T19:58:24.392Z,76.20
2018-06-05T20:00:53.011Z,76.50
2018-06-05T20:03:21.895Z,76.90
2018-06-05T20:05:50.425Z,77.50
2018-06-05T20:08:19.613Z,77.90
2018-06-05T20:10:48.483Z,78.40
2018-06-05T20:13:17.050Z,78.70
2018-06-05T20:15:45.534Z,79.30
2018-06-05T20:18:15.709Z,79.60
2018-06-05T20:20:44.213Z,80.10
2018-06-05T20:23:13.446Z,80.60
2018-06-05T20:25:42.137Z,81.60
2018-06-05T20:28:11.573Z,81.50
2018-06-05T20:30:40.072Z,82.00
2018-06-05T20:33:08.860Z,82.30
2018-06-05T20:35:37.702Z,82.70
2018-06-05T20:38:06.494Z,83.00
2018-06-05T20:40:34.974Z,83.30
2018-06-05T20:43:04.224Z,83.40
2018-06-05T20:45:32.787Z,84.10
2018-06-05T20:48:01.755Z,84.40
2018-06-05T20:50:30.577Z,84.80
2018-06-05T20:52:59.122Z,85.40
2018-06-05T20:55:27.642Z,86.10
2018-06-05T20:57:57.544Z,86.40
2018-06-05T21:02:54.191Z,87.00
2018-06-05T21:05:23.372Z,87.60
2018-06-05T21:07:52.178Z,88.00
2018-06-05T21:10:21.110Z,88.10
2018-06-05T21:12:50.476Z,88.50
2018-06-05T21:25:09.022Z,88.60
2018-06-05T21:27:37.887Z,90.50
2018-06-05T21:30:07.404Z,90.90
2018-06-05T21:32:36.222Z,90.90
2018-06-05T21:35:04.773Z,91.10
2018-06-05T21:37:33.601Z,91.20
2018-06-05T21:40:02.586Z,91.40
2018-06-05T21:42:31.049Z,91.30
2018-06-05T21:44:59.796Z,91.30
2018-06-05T21:47:28.269Z,91.40
2018-06-05T21:49:57.349Z,91.50
2018-06-05T21:52:26.127Z,91.60
2018-06-05T21:54:54.660Z,91.60
2018-06-05T21:57:24.173Z,91.90
2018-06-05T21:59:52.678Z,92.00
2018-06-05T22:02:21.869Z,91.90
2018-06-05T22:04:50.313Z,92.00
2018-06-05T22:07:19.330Z,92.00
2018-06-05T22:09:47.754Z,92.00
2018-06-05T22:12:16.720Z,92.20
2018-06-05T22:14:46.113Z,92.20
2018-06-05T22:17:16.103Z,92.40
2018-06-05T22:19:44.592Z,92.30
2018-06-05T22:22:13.081Z,92.40
2018-06-05T22:24:42.204Z,92.40
2018-06-05T22:27:10.643Z,92.70
2018-06-05T22:29:39.794Z,92.50
2018-06-05T22:32:08.325Z,92.50
2018-06-05T22:34:36.949Z,92.70
2018-06-05T22:37:05.710Z,92.70
2018-06-05T22:39:34.389Z,92.90
2018-06-05T22:42:04.330Z,93.00
2018-06-05T22:44:33.115Z,92.80
2018-06-05T22:49:30.994Z,92.40
2018-06-05T22:51:59.404Z,92.50
2018-06-05T22:54:27.977Z,92.80
2018-06-05T22:56:56.458Z,92.80
2018-06-05T22:59:26.216Z,93.10
2018-06-05T23:01:55.263Z,93.10
2018-06-05T23:04:23.967Z,92.70
2018-06-05T23:06:52.684Z,93.00
2018-06-05T23:09:21.109Z,93.00
2018-06-05T23:11:49.917Z,92.90
2018-06-05T23:14:18.345Z,93.20
2018-06-05T23:16:47.594Z,92.90
2018-06-05T23:19:16.060Z,93.40
2018-06-05T23:21:45.368Z,93.10
2018-06-05T23:24:13.832Z,93.50
2018-06-05T23:26:42.308Z,93.80
2018-06-05T23:29:11.186Z,94.00
2018-06-05T23:34:08.418Z,93.70
2018-06-05T23:36:37.001Z,94.00
2018-06-05T23:39:07.746Z,94.20
2018-06-05T23:41:36.564Z,94.40
2018-06-05T23:44:05.013Z,94.50
2018-06-05T23:46:33.713Z,94.80
2018-06-05T23:49:02.900Z,94.90
2018-06-05T23:51:31.688Z,94.40
2018-06-05T23:54:00.169Z,94.20
2018-06-05T23:58:57.065Z,94.50
